Details From LOWW - Wien Schwechat
To LOWS - Salzburg Maxglan
Flight Number -
Tags decoded
Created
Modified
Stats Distance 146 nm / 270 km
Max Altitude 0 ft / 0 m
Waypoints 4
Social Downloads 8
Likes 0
Share VATSIM

Download

Looking for another format? Having issues loading an existing format? Contact us
Advertisement - Login to hide

Notes

Requested: LOWW N0470F240 SITN2X SITNI L856 BAGSI BAGSI LOWS Unmatched points: N0470F240 SITN2X

Route

LOWW SITNI L856 BAGSI LOWS

ID Type Via Altitude Latitude Longitude Leg Dist Tot Dist Heading (true) Name
O LOWW APT - 0 ft / 0 m 48.11007˚ 16.56964˚ - 0 nm - Wien Schwechat
SITNI FIX - 0 ft / 0 m 48.05423˚ 14.83461˚ 69 nm 69 nm 268° / 267° -
BAGSI FIX L856 (AWY-LO) 0 ft / 0 m 48.05782˚ 14.28972˚ 21 nm 91 nm 271° / 270° -
O LOWS APT - 0 ft / 0 m 47.79333˚ 13.00433˚ 54 nm 145 nm 253° / 252° Salzburg Maxglan

Altitude Profile

Advertisement - Login to hide

LOWW

Details ICAO LOWW (VIE)
Name Wien Schwechat
Region Austria
Timezone Europe/Vienna (UTC+1.0)
Stats Elevation 600 ft / 183 m (AMSL)
Location 48.110068° 16.569637°
Runways 2
Magnetic Variation 4.258° E

METAR

LOWW 180420Z 32007KT 9999 BKN026 M01/M04 Q1023 R88/15//95 NOSIG

Decode

TAF

TAF LOWW 172315Z 1800/1906 30012KT 9999 BKN030 TX02/1800Z TNM04/1906Z PROB40 TEMPO 1800/1806 6000 -SHSN BKN020 BECMG 1806/1809 34007KT SCT040

Decode

Departure Runways

ID Width Length Bearing (true) Bearing (mag) Surface Threshold Offset Overrun Length
11 148 ft / 45 m 11,457 ft / 3,492 m 115.99° 111.73° Asphalt 0 ft / 0 m 0 ft / 0 m
16 148 ft / 45 m 11,811 ft / 3,600 m 164.23° 159.97° Asphalt 0 ft / 0 m 33 ft / 10 m
29 148 ft / 45 m 11,457 ft / 3,492 m 296.03° 291.77° Asphalt 0 ft / 0 m 0 ft / 0 m
34 148 ft / 45 m 11,811 ft / 3,600 m 344.24° 339.98° Asphalt 0 ft / 0 m 0 ft / 0 m

LOWS

Details ICAO LOWS (SZG)
Name Salzburg Maxglan
Region Austria
Timezone Europe/Vienna (UTC+1.0)
Stats Elevation 1,411 ft / 430 m (AMSL)
Location 47.793333° 13.004333°
Runways 1
Magnetic Variation 3.428° E

METAR

LOWS 180420Z AUTO 17004KT 150V240 9999 FEW042 SCT060 BKN070 M01/M04 Q1023

Decode

TAF

TAF LOWS 172315Z 1800/1824 26005KT 9999 SCT030 BKN050 TX02/1813Z TNM03/1824Z TEMPO 1800/1804 29010KT 4000 -SHSN SCT012 BKN025 BECMG 1804/1806 16006KT TEMPO 1812/1818 03006KT SCT050 BECMG 1818/1820 16005KT SCT050 BKN250

Decode

Destination Runways

ID Width Length Bearing (true) Bearing (mag) Surface Threshold Offset Overrun Length
16 148 ft / 45 m 9,024 ft / 2,751 m 157.08° 153.65° Concrete 656 ft / 200 m 0 ft / 0 m
34 148 ft / 45 m 9,024 ft / 2,751 m 337.09° 333.66° Concrete 787 ft / 240 m 0 ft / 0 m

Approach Navaids

Runway Type Ident Frequency Range Bearing (true) Bearing (mag) Slope Elevation
16 Localiser OES 109.90 MHz 18 nm / 33 km 157.53° 154.11° - 1,411 ft / 430 m (AMSL)
16 Glidescope OES 109.90 MHz 10 nm / 19 km 157.09° 153.66° 3.00° 1,446 ft / 441 m (AMSL)
16 DME OES 109.90 MHz 18 nm / 33 km - - - 1,446 ft / 441 m (AMSL)

Popular Alternatives